• Join FlightAware (Why Join?)
  • Login
  • US Flag 
07:49AM EST


 

Airport Tracker/Info


-or-


 

Live Flight TrackerFlight Track Log ✈ JIA2536 ✈ 09-May-2013 ✈ KTLH - KDCA

Flight Track Log - Related Links

Times and Time Zones

All times are in EDT time to prevent confusion due to time zone crossing. See the JIA2536 flight status page for this flight to view local times or setup timezone preferences in your user account.

Time Position Orientation Groundspeed Altitude Reporting Facility
EDT Latitude Longitude Course Direction KTS MPH feet Rate Location/Type
04:56PM 30.4475 -84.4106 90° East 197 227 4,100  Level Jacksonville Center
04:57PM 30.4051 -84.0059 84° East  Level FlightAware Approximate
04:57PM 30.4672 -84.3289 74° East 156 180 7,200  Level Jacksonville Center
04:58PM 30.4147 -83.8907 84° East  Level FlightAware Approximate
04:58PM 30.5078 -84.2525 58° Northeast 197 227 10,000  Level Jacksonville Center
04:59PM 30.4243 -83.7756 84° East  Level FlightAware Approximate
04:59PM 30.5753 -84.1858 40° Northeast 260 299 12,800  Level Jacksonville Center
05:00PM 30.4333 -83.6603 90° East  Level FlightAware Approximate
05:00PM 30.6425 -84.1264 37° Northeast 283 326 14,700  Level Jacksonville Center
05:01PM 30.4344 -83.5447 77° East  Level FlightAware Approximate
05:01PM 30.7142 -84.0644 37° Northeast 297 342 16,700  Level Jacksonville Center
05:02PM 30.4500 -83.4310 90° East  Level FlightAware Approximate
05:02PM 30.7858 -83.9953 40° Northeast 316 364 18,300  Level Jacksonville Center
05:03PM 30.8617 -83.9283 37° Northeast 328 377 19,900 1,750 Climbing Jacksonville Center
05:04PM 30.9372 -83.8567 39° Northeast 333 383 21,800 1,600 Climbing Jacksonville Center
05:05PM 31.0131 -83.7894 37° Northeast 339 390 23,100 1,250 Climbing Jacksonville Center
05:06PM 31.0886 -83.7150 40° Northeast 350 403 24,300 1,141 Climbing Jacksonville Center
05:08PM 31.2219 -83.5969 37° Northeast 347 399 26,200 1,141 Climbing Atlanta Center
05:09PM 31.3031 -83.5236 38° Northeast 359 413 27,400 1,050 Climbing Atlanta Center
05:10PM 31.3861 -83.4478 38° Northeast 364 419 28,300 750 Climbing Atlanta Center
05:11PM 31.4733 -83.3692 38° Northeast 374 430 28,900 350 Climbing Atlanta Center
05:12PM 31.5628 -83.2883 38° Northeast 391 450 29,000 50 Climbing Atlanta Center
05:13PM 31.6539 -83.2019 39° Northeast 401 461 29,000  Level Atlanta Center
05:14PM 31.7433 -83.1231 37° Northeast 407 468 29,000  Level Atlanta Center
05:15PM 31.8303 -83.0417 38° Northeast 407 468 29,000  Level Atlanta Center
05:16PM 31.9172 -82.9622 38° Northeast 402 463 29,000  Level Atlanta Center
05:17PM 32.0161 -82.8706 38° Northeast 390 449 29,000  Level Jacksonville Center
05:18PM 32.0997 -82.7894 39° Northeast 408 470 29,000  Level Jacksonville Center
05:19PM 32.1853 -82.7133 37° Northeast 394 453 29,000  Level Jacksonville Center
05:20PM 32.2664 -82.6369 39° Northeast 382 440 29,000  Level Jacksonville Center
05:21PM 32.3456 -82.5606 39° Northeast 371 427 29,000  Level Jacksonville Center
05:22PM 32.4122 -82.4989 38° Northeast 371 427 29,000  Level Jacksonville Center
05:23PM 32.5017 -82.4172 38° Northeast 371 427 29,000  Level Jacksonville Center
05:24PM 32.5808 -82.3403 39° Northeast 371 427 29,000  Level Jacksonville Center
05:25PM 32.6619 -82.2658 38° Northeast 371 427 29,000  Level Jacksonville Center
05:26PM 32.7408 -82.1886 39° Northeast 371 427 29,000  Level Jacksonville Center
05:27PM 32.8300 -82.1039 39° Northeast 371 427 29,000  Level Jacksonville Center
05:28PM 32.9089 -82.0314 38° Northeast 371 427 29,000  Level Jacksonville Center
05:29PM 32.9897 -81.9514 40° Northeast 371 427 29,000  Level Jacksonville Center
05:30PM 33.0683 -81.8764 39° Northeast 371 427 29,000  Level Jacksonville Center
05:31PM 33.1472 -81.8033 38° Northeast 371 427 29,000  Level Jacksonville Center
05:32PM 33.2258 -81.7281 39° Northeast 371 427 29,000  Level Jacksonville Center
05:33PM 33.3064 -81.6522 38° Northeast 371 427 29,000  Level Jacksonville Center
05:34PM 33.3850 -81.5717 41° Northeast 371 427 29,000  Level Jacksonville Center
05:35PM 33.4675 -81.4933 38° Northeast 371 427 29,000  Level Jacksonville Center
05:36PM 33.5461 -81.4172 39° Northeast 371 427 29,000  Level Jacksonville Center
05:37PM 33.6119 -81.3539 39° Northeast 371 427 29,000  Level Jacksonville Center
05:38PM 33.7008 -81.2725 37° Northeast 371 427 29,000  Level Jacksonville Center
05:39PM 33.7811 -81.1933 39° Northeast 371 427 29,000  Level Jacksonville Center
05:40PM 33.8614 -81.1144 39° Northeast 371 427 29,000  Level Jacksonville Center
05:41PM 33.9436 -81.0325 40° Northeast 371 427 29,000  Level Jacksonville Center
05:42PM 34.0219 -80.9608 37° Northeast 371 427 29,000  Level Jacksonville Center
05:43PM 34.1000 -80.8789 41° Northeast 371 427 29,000  Level Jacksonville Center
05:44PM 34.1800 -80.7992 39° Northeast 376 433 29,000  Level Jacksonville Center
05:45PM 34.2581 -80.7219 39° Northeast 371 427 29,000  Level Jacksonville Center
05:46PM 34.3400 -80.6469 37° Northeast 371 427 29,000  Level Jacksonville Center
05:47PM 34.4200 -80.5617 41° Northeast 371 427 29,000  Level Jacksonville Center
05:48PM 34.4958 -80.4892 38° Northeast 371 427 29,000  Level Jacksonville Center
05:50PM 34.6425 -80.3000 47° Northeast 360 414 29,000  Level Washington Center
05:51PM 34.7028 -80.1972 54° Northeast 365 420 29,000  Level Washington Center
05:52PM 34.7786 -80.1206 40° Northeast 356 410 29,000  Level Washington Center
05:53PM 34.8567 -80.0442 39° Northeast 351 404 29,000  Level Washington Center
05:54PM 34.9367 -79.9700 37° Northeast 356 410 29,000  Level Washington Center
05:55PM 35.0125 -79.8928 40° Northeast 356 410 29,000  Level Washington Center
05:56PM 35.0883 -79.8156 40° Northeast 356 410 29,000  Level Washington Center
05:57PM 35.1681 -79.7386 38° Northeast 356 410 29,000  Level Washington Center
05:58PM 35.2458 -79.6639 38° Northeast 356 410 29,000  Level Washington Center
05:59PM 35.3214 -79.5886 39° Northeast 356 410 29,000  Level Washington Center
06:00PM 35.3950 -79.5133 40° Northeast 356 410 29,000  Level Washington Center
06:01PM 35.4747 -79.4356 38° Northeast 356 410 29,000  Level Washington Center
06:02PM 35.5522 -79.3578 39° Northeast 356 410 29,000 -50 Level Washington Center
06:03PM 35.6297 -79.2797 39° Northeast 356 410 28,900 -350 Descending Washington Center
06:04PM 35.7094 -79.2014 39° Northeast 356 410 28,300 -590 Descending Washington Center
06:05PM 35.7889 -79.1206 40° Northeast 361 415 27,700 -610 Descending Washington Center
06:06PM 35.8686 -79.0394 39° Northeast 361 415 27,100 -353 Descending Washington Center
06:07PM 35.9458 -78.9608 39° Northeast 356 410 27,000 -50 Descending Washington Center
06:08PM 36.0233 -78.8792 40° Northeast 356 410 27,000  Level Washington Center
06:09PM 36.1006 -78.8003 40° Northeast 356 410 27,000  Level Washington Center
06:10PM 36.1628 -78.7358 40° Northeast 356 410 27,000  Level Washington Center
06:11PM 36.2486 -78.6492 39° Northeast 361 415 27,000  Level Washington Center
06:12PM 36.3278 -78.5672 40° Northeast 361 415 27,000  Level Washington Center
06:13PM 36.4069 -78.4850 40° Northeast 361 415 27,000  Level Washington Center
06:14PM 36.4861 -78.4028 40° Northeast 361 415 27,000  Level Washington Center
06:15PM 36.5653 -78.3175 41° Northeast 361 415 27,000  Level Washington Center
06:16PM 36.6464 -78.2375 38° Northeast 361 415 27,000  Level Washington Center
06:17PM 36.7256 -78.1497 42° Northeast 361 415 27,000  Level Washington Center
06:18PM 36.8067 -78.0642 40° Northeast 371 427 27,000  Level Washington Center
06:19PM 36.8875 -77.9811 39° Northeast 371 427 27,000  Level Washington Center
06:20PM 36.9664 -77.8950 41° Northeast 371 427 27,000 -353 Level Washington Center
06:21PM 37.0494 -77.8064 40° Northeast 376 433 26,300 -942 Descending Washington Center
06:22PM 37.1261 -77.7253 40° Northeast 371 427 25,100 -1,190 Descending Washington Center
06:23PM 37.2006 -77.6439 41° Northeast 361 415 23,900 -1,180 Descending Washington Center
06:24PM 37.2728 -77.5675 40° Northeast 350 403 22,700 -1,210 Descending Washington Center
06:25PM 37.3447 -77.4911 40° Northeast 345 397 21,500 -1,220 Descending Washington Center
06:26PM 37.4169 -77.4117 41° Northeast 340 391 20,300 -756 Descending Washington Center
06:27PM 37.4889 -77.3350 40° Northeast 340 391 20,000 -151 Descending Washington Center
06:28PM 37.5750 -77.3056 15° North 313 360 20,000  Level Washington Center
06:29PM 37.6628 -77.2892 North 313 360 20,000 -246 Level Washington Center
06:30PM 37.7528 -77.2700 10° North 313 360 19,500 -1,082 Descending Washington Center
06:31PM 37.8428 -77.2483 11° North 319 367 17,800 -1,664 Descending Washington Center
06:32PM 37.9328 -77.2294 North 319 367 16,200 -1,613 Descending Washington Center
06:33PM 38.0225 -77.2128 North 319 367 14,600 -1,636 Descending Washington Center
06:34PM 38.1042 -77.1989 North 314 361 12,900 -1,627 Descending Washington Center
06:35PM 38.1878 -77.1819 North 303 349 11,400 -1,424 Descending Washington Center
06:36PM 38.2631 -77.1600 13° North 288 331 10,100 -1,240 Descending Washington Center
06:37PM 38.3344 -77.1350 15° North 271 312 8,900 -1,426 Descending Washington Center
06:38PM 38.3975 -77.0858 31° Northeast 259 298 7,200 -1,785 Descending Washington Center
06:39PM 38.4586 -77.0367 32° Northeast 259 298 5,300 -1,119 Descending Washington Center
06:40PM 38.5233 -77.0167 14° North 243 280 5,000 -407 Descending Washington Center
06:41PM 38.5839 -77.0178 359° North 226 260 4,500 -934 Descending Washington Center
06:42PM 38.6422 -77.0217 357° North 214 246 3,100 -1,355 Descending Washington Center